createdAt,value
2023-03-07T00:00:36.287Z,0.00
2023-03-07T00:01:36.261Z,0.00
2023-03-07T00:02:36.258Z,0.00
2023-03-07T00:03:36.254Z,0.00
2023-03-07T00:04:36.261Z,0.00
2023-03-07T00:05:36.244Z,0.00
2023-03-07T00:06:36.239Z,0.00
2023-03-07T00:07:36.216Z,0.00
2023-03-07T00:08:36.222Z,0.00
2023-03-07T00:09:37.179Z,0.00
2023-03-07T00:10:36.186Z,0.00
2023-03-07T00:11:36.177Z,0.00
2023-03-07T00:12:36.162Z,0.00
2023-03-07T00:13:36.143Z,0.00
2023-03-07T00:14:36.157Z,0.00
2023-03-07T00:15:36.121Z,0.00
2023-03-07T00:16:36.133Z,0.00
2023-03-07T00:17:36.100Z,0.00
2023-03-07T00:18:36.117Z,0.00
2023-03-07T00:19:36.083Z,0.00
2023-03-07T00:20:36.075Z,0.00
2023-03-07T00:21:36.079Z,0.00
2023-03-07T00:22:36.058Z,0.00
2023-03-07T00:23:36.049Z,0.00
2023-03-07T00:24:36.041Z,0.00
2023-03-07T00:25:36.028Z,0.00
2023-03-07T00:26:36.031Z,0.00
2023-03-07T00:27:36.009Z,0.00
2023-03-07T00:28:36.012Z,0.00
2023-03-07T00:29:36.050Z,0.00
2023-03-07T00:30:35.977Z,0.00
2023-03-07T00:31:35.990Z,0.00
2023-03-07T00:32:36.042Z,0.00
2023-03-07T00:33:35.969Z,0.00
2023-03-07T00:34:35.957Z,0.00
2023-03-07T00:35:35.942Z,0.00
2023-03-07T00:36:35.920Z,0.00
2023-03-07T00:37:35.911Z,0.00
2023-03-07T00:38:35.917Z,0.00
2023-03-07T00:39:35.889Z,0.00
2023-03-07T00:40:35.887Z,0.00
2023-03-07T00:41:35.888Z,0.00
2023-03-07T00:42:35.864Z,0.00
2023-03-07T00:43:35.859Z,0.00
2023-03-07T00:44:35.860Z,0.00
2023-03-07T00:45:35.840Z,0.00
2023-03-07T00:46:35.848Z,0.00
2023-03-07T00:47:35.826Z,0.00
2023-03-07T00:48:35.818Z,0.00
2023-03-07T00:49:35.828Z,0.00
2023-03-07T00:50:35.795Z,0.00
2023-03-07T00:51:35.783Z,0.00
2023-03-07T00:52:35.782Z,0.00
2023-03-07T00:53:35.761Z,0.00
2023-03-07T00:54:35.792Z,0.00
2023-03-07T00:55:35.745Z,0.00
2023-03-07T00:56:35.744Z,0.00
2023-03-07T00:57:35.729Z,0.00
2023-03-07T00:58:35.730Z,0.00
2023-03-07T00:59:35.753Z,0.00
2023-03-07T01:00:35.711Z,0.00
2023-03-07T01:01:35.718Z,0.00
2023-03-07T01:02:35.676Z,0.00
2023-03-07T01:03:35.679Z,0.00
2023-03-07T01:04:36.730Z,0.00
2023-03-07T01:05:35.683Z,0.00
2023-03-07T01:06:35.656Z,0.00
2023-03-07T01:07:35.627Z,0.00
2023-03-07T01:08:35.654Z,0.00
2023-03-07T01:09:35.611Z,0.00
2023-03-07T01:10:35.600Z,0.00
2023-03-07T01:11:35.610Z,0.00
2023-03-07T01:12:35.604Z,0.00
2023-03-07T01:13:35.572Z,0.00
2023-03-07T01:14:35.573Z,0.00
2023-03-07T01:15:36.563Z,0.00
2023-03-07T01:16:35.596Z,0.00
2023-03-07T01:17:35.566Z,0.00
2023-03-07T01:18:35.558Z,0.00
2023-03-07T01:19:35.568Z,0.00
2023-03-07T01:20:35.510Z,0.00
2023-03-07T01:21:35.502Z,0.00
2023-03-07T01:22:35.494Z,0.00
2023-03-07T01:23:35.487Z,0.00
2023-03-07T01:24:35.496Z,0.00
2023-03-07T01:26:07.385Z,0.00
2023-03-07T01:26:35.474Z,0.00
2023-03-07T01:27:35.457Z,0.00
2023-03-07T01:28:35.455Z,0.00
2023-03-07T01:29:35.465Z,0.00
2023-03-07T01:30:35.436Z,0.00
2023-03-07T01:31:35.464Z,0.00
2023-03-07T01:32:35.488Z,0.00
2023-03-07T01:33:35.398Z,0.00
2023-03-07T01:34:35.421Z,0.00
2023-03-07T01:35:35.434Z,0.00
2023-03-07T01:36:35.383Z,0.00
2023-03-07T01:37:35.358Z,0.00
2023-03-07T01:38:35.362Z,0.00
2023-03-07T01:39:35.369Z,0.00
2023-03-07T01:40:35.335Z,0.00
2023-03-07T01:41:35.316Z,0.00
2023-03-07T01:42:35.315Z,0.00
2023-03-07T01:43:35.325Z,0.00
2023-03-07T01:44:35.344Z,0.00
2023-03-07T01:45:35.360Z,0.00
2023-03-07T01:46:35.300Z,0.00
2023-03-07T01:47:35.289Z,0.00
2023-03-07T01:48:35.267Z,0.00
2023-03-07T01:49:35.317Z,0.00
2023-03-07T01:50:35.268Z,0.00
2023-03-07T01:51:35.236Z,0.00
2023-03-07T01:52:35.246Z,0.00
2023-03-07T01:53:35.217Z,0.00
2023-03-07T01:54:35.230Z,0.00
2023-03-07T01:55:35.218Z,0.00
2023-03-07T01:56:35.212Z,0.00
2023-03-07T01:57:35.181Z,0.00
2023-03-07T01:58:35.185Z,0.00
2023-03-07T01:59:35.197Z,0.00
2023-03-07T02:00:35.157Z,0.00
2023-03-07T02:01:35.197Z,0.00
2023-03-07T02:02:35.160Z,0.00
2023-03-07T02:03:35.133Z,0.00
2023-03-07T02:04:35.195Z,0.00
2023-03-07T02:05:35.113Z,0.00
2023-03-07T02:06:35.102Z,0.00
2023-03-07T02:07:35.091Z,0.00
2023-03-07T02:08:35.095Z,0.00
2023-03-07T02:09:35.104Z,0.00
2023-03-07T02:10:35.074Z,0.00
2023-03-07T02:11:35.057Z,0.00
2023-03-07T02:12:35.058Z,0.00
2023-03-07T02:13:35.058Z,0.00
2023-03-07T02:14:35.025Z,0.00
2023-03-07T02:15:35.086Z,0.00
2023-03-07T02:16:35.003Z,0.00
2023-03-07T02:17:34.994Z,0.00
2023-03-07T02:18:34.988Z,0.00
2023-03-07T02:19:34.966Z,0.00
2023-03-07T02:20:34.977Z,0.00
2023-03-07T02:21:34.960Z,0.00
2023-03-07T02:22:34.935Z,0.00
2023-03-07T02:23:34.959Z,0.00
2023-03-07T02:24:35.009Z,0.00
2023-03-07T02:25:34.958Z,0.00
2023-03-07T02:26:34.914Z,0.00
2023-03-07T02:27:34.904Z,0.00
2023-03-07T02:28:34.892Z,0.00
2023-03-07T02:29:34.868Z,0.00
2023-03-07T02:30:34.860Z,0.00
2023-03-07T02:31:34.884Z,0.00
2023-03-07T02:32:34.917Z,0.00
2023-03-07T02:33:34.857Z,0.00
2023-03-07T02:34:34.843Z,0.00
2023-03-07T02:35:34.836Z,0.00
2023-03-07T02:36:34.903Z,0.00
2023-03-07T02:37:34.830Z,0.00
2023-03-07T02:38:34.790Z,0.00
2023-03-07T02:39:34.787Z,0.00
2023-03-07T02:40:34.805Z,0.00
2023-03-07T02:41:34.760Z,0.00
2023-03-07T02:42:34.754Z,0.00
2023-03-07T02:43:34.750Z,0.00
2023-03-07T02:44:34.732Z,0.00
2023-03-07T02:45:35.760Z,0.00
2023-03-07T02:46:34.724Z,0.00
2023-03-07T02:47:34.713Z,0.00
2023-03-07T02:48:34.707Z,0.00
2023-03-07T02:49:34.690Z,0.00
2023-03-07T02:50:34.715Z,0.00
2023-03-07T02:51:34.658Z,0.00
2023-03-07T02:52:34.655Z,0.00
2023-03-07T02:53:34.668Z,0.00
2023-03-07T02:54:34.660Z,0.00
2023-03-07T02:55:34.662Z,0.00
2023-03-07T02:56:34.628Z,0.00
2023-03-07T02:57:34.610Z,0.00
2023-03-07T02:58:34.619Z,0.00
2023-03-07T02:59:34.575Z,0.00
2023-03-07T03:00:34.619Z,0.00
2023-03-07T03:01:34.666Z,0.00
2023-03-07T03:02:34.578Z,0.00
2023-03-07T03:03:34.566Z,0.00
2023-03-07T03:04:34.581Z,0.00
2023-03-07T03:05:34.545Z,0.00
2023-03-07T03:06:34.548Z,0.00
2023-03-07T03:07:34.526Z,0.00
2023-03-07T03:08:34.506Z,0.00
2023-03-07T03:09:34.511Z,0.00
2023-03-07T03:10:34.494Z,0.00
2023-03-07T03:11:34.497Z,0.00
2023-03-07T03:12:34.460Z,0.00
2023-03-07T03:13:34.455Z,0.00
2023-03-07T03:14:34.455Z,0.00
2023-03-07T03:15:34.446Z,0.00
2023-03-07T03:16:34.427Z,0.00
2023-03-07T03:17:34.419Z,0.00
2023-03-07T03:18:34.427Z,0.00
2023-03-07T03:19:34.418Z,0.00
2023-03-07T03:20:34.389Z,0.00
2023-03-07T03:21:34.391Z,0.00
2023-03-07T03:22:34.386Z,0.00
2023-03-07T03:23:34.363Z,0.00
2023-03-07T03:24:34.350Z,0.00
2023-03-07T03:25:34.336Z,0.00
2023-03-07T03:26:34.341Z,0.00
2023-03-07T03:27:34.345Z,0.00
2023-03-07T03:28:34.315Z,0.00
2023-03-07T03:29:34.325Z,0.00
2023-03-07T03:30:34.291Z,0.00
2023-03-07T03:31:34.343Z,0.00
2023-03-07T03:32:34.350Z,0.00
2023-03-07T03:33:34.275Z,0.00
2023-03-07T03:34:34.274Z,0.00
2023-03-07T03:35:34.278Z,0.00
2023-03-07T03:36:34.230Z,0.00
2023-03-07T03:37:34.216Z,0.00
2023-03-07T03:38:34.249Z,0.00
2023-03-07T03:39:34.204Z,0.00
2023-03-07T03:40:34.192Z,0.00
2023-03-07T03:41:34.194Z,0.00
2023-03-07T03:42:34.200Z,0.00
2023-03-07T03:43:34.187Z,0.00
2023-03-07T03:44:34.153Z,0.00
2023-03-07T03:45:34.137Z,0.00
2023-03-07T03:46:34.175Z,0.00
2023-03-07T03:47:34.136Z,0.00
2023-03-07T03:48:34.112Z,0.00
2023-03-07T03:49:34.098Z,0.00
2023-03-07T03:50:34.092Z,0.00
2023-03-07T03:51:34.105Z,0.00
2023-03-07T03:52:34.075Z,0.00
2023-03-07T03:53:34.069Z,0.00
2023-03-07T03:54:34.082Z,0.00
2023-03-07T03:55:34.035Z,0.00
2023-03-07T03:56:34.042Z,0.00
2023-03-07T03:57:34.023Z,0.00
2023-03-07T03:58:34.014Z,0.00
2023-03-07T03:59:34.024Z,0.00
2023-03-07T04:00:34.019Z,0.00
2023-03-07T04:01:34.070Z,0.00
2023-03-07T04:02:34.057Z,0.00
2023-03-07T04:03:34.101Z,0.00
2023-03-07T04:04:33.976Z,0.00
2023-03-07T04:05:33.951Z,0.00
2023-03-07T04:06:33.945Z,0.00
2023-03-07T04:07:33.946Z,0.00
2023-03-07T04:08:33.922Z,0.00
2023-03-07T04:09:33.902Z,0.00
2023-03-07T04:10:33.921Z,0.00
2023-03-07T04:11:33.891Z,0.00
2023-03-07T04:12:33.876Z,0.00
2023-03-07T04:13:33.875Z,0.00
2023-03-07T04:14:33.875Z,0.00
2023-03-07T04:15:33.841Z,0.00
2023-03-07T04:16:33.935Z,0.00
2023-03-07T04:17:33.819Z,0.00
2023-03-07T04:18:33.841Z,0.00
2023-03-07T04:19:33.821Z,0.00
2023-03-07T04:20:33.798Z,0.00
2023-03-07T04:21:33.817Z,0.00
2023-03-07T04:22:33.821Z,0.00
2023-03-07T04:23:33.793Z,0.00
2023-03-07T04:24:33.767Z,0.00
2023-03-07T04:25:33.763Z,0.00
2023-03-07T04:26:33.745Z,0.00
2023-03-07T04:27:33.747Z,0.00
2023-03-07T04:28:33.714Z,0.00
2023-03-07T04:29:33.712Z,0.00
2023-03-07T04:30:33.730Z,0.00
2023-03-07T04:31:33.706Z,0.00
2023-03-07T04:32:33.733Z,0.00
2023-03-07T04:33:33.668Z,0.00
2023-03-07T04:34:33.662Z,0.00
2023-03-07T04:35:33.681Z,0.00
2023-03-07T04:36:33.685Z,0.00
2023-03-07T04:37:33.627Z,0.00
2023-03-07T04:38:33.618Z,0.00
2023-03-07T04:39:33.650Z,0.00
2023-03-07T04:40:33.601Z,0.00
2023-03-07T04:41:33.635Z,0.00
2023-03-07T04:42:33.580Z,0.00
2023-03-07T04:43:33.603Z,0.00
2023-03-07T04:44:33.674Z,0.00
2023-03-07T04:45:33.588Z,0.00
2023-03-07T04:46:33.554Z,0.00
2023-03-07T04:47:33.545Z,0.00
2023-03-07T04:48:33.625Z,0.00
2023-03-07T04:49:33.522Z,0.00
2023-03-07T04:50:33.513Z,0.00
2023-03-07T04:51:33.514Z,0.00
2023-03-07T04:52:33.501Z,0.00
2023-03-07T04:53:33.514Z,0.00
2023-03-07T04:54:33.500Z,0.00
2023-03-07T04:55:33.454Z,0.00
2023-03-07T04:56:33.476Z,0.00
2023-03-07T04:57:33.446Z,0.00
2023-03-07T04:58:33.434Z,0.00
2023-03-07T04:59:33.447Z,0.00
2023-03-07T05:00:33.433Z,0.00
2023-03-07T05:01:33.437Z,0.00
2023-03-07T05:02:33.398Z,0.00
2023-03-07T05:03:33.421Z,0.00
2023-03-07T05:04:33.416Z,0.00
2023-03-07T05:05:33.373Z,0.00
2023-03-07T05:06:33.391Z,0.00
2023-03-07T05:07:33.363Z,0.00
2023-03-07T05:08:33.374Z,0.00
2023-03-07T05:09:33.324Z,0.00
2023-03-07T05:10:33.311Z,0.00
2023-03-07T05:11:33.318Z,0.00
2023-03-07T05:12:33.336Z,0.00
2023-03-07T05:13:33.382Z,0.00
2023-03-07T05:14:33.279Z,0.00
2023-03-07T05:15:33.337Z,0.00
2023-03-07T05:16:33.265Z,0.00
2023-03-07T05:17:33.272Z,0.00
2023-03-07T05:18:33.244Z,0.00
2023-03-07T05:19:33.257Z,0.00
2023-03-07T05:20:33.302Z,0.00
2023-03-07T05:21:33.241Z,0.00
2023-03-07T05:22:33.221Z,0.00
2023-03-07T05:23:33.221Z,0.00
2023-03-07T05:24:33.193Z,0.00
2023-03-07T05:25:33.179Z,0.00
2023-03-07T05:26:33.168Z,0.00
2023-03-07T05:27:33.165Z,0.00
2023-03-07T05:28:33.183Z,0.00
2023-03-07T05:29:33.140Z,0.00
2023-03-07T05:30:33.131Z,0.00
2023-03-07T05:31:33.207Z,0.00
2023-03-07T05:32:33.148Z,0.00
2023-03-07T05:33:33.133Z,4.00
2023-03-07T05:34:33.101Z,0.00
2023-03-07T05:35:33.095Z,4.00
2023-03-07T05:36:33.081Z,4.00
2023-03-07T05:37:33.059Z,4.00
2023-03-07T05:38:33.033Z,8.00
2023-03-07T05:39:34.067Z,4.00
2023-03-07T05:40:33.041Z,4.00
2023-03-07T05:41:33.027Z,8.00
2023-03-07T05:42:33.033Z,8.00
2023-03-07T05:43:33.004Z,8.00
2023-03-07T05:44:34.155Z,8.00
2023-03-07T05:45:33.997Z,12.00
2023-03-07T05:46:32.985Z,20.00
2023-03-07T05:47:33.011Z,20.00
2023-03-07T05:48:32.963Z,20.00
2023-03-07T05:49:32.941Z,24.00
2023-03-07T05:50:32.941Z,28.00
2023-03-07T05:51:32.928Z,28.00
2023-03-07T05:52:32.938Z,32.00
2023-03-07T05:53:32.910Z,36.00
2023-03-07T05:54:32.907Z,44.00
2023-03-07T05:55:32.894Z,52.00
2023-03-07T05:56:32.883Z,64.00
2023-03-07T05:57:32.899Z,60.00
2023-03-07T05:58:32.867Z,56.00
2023-03-07T05:59:32.889Z,56.00
2023-03-07T06:00:32.836Z,60.00
2023-03-07T06:01:32.850Z,76.00
2023-03-07T06:02:32.882Z,84.00
2023-03-07T06:03:32.872Z,100.00
2023-03-07T06:04:32.808Z,104.00
2023-03-07T06:05:32.820Z,108.00
2023-03-07T06:06:32.788Z,112.00
2023-03-07T06:07:32.800Z,116.00
2023-03-07T06:08:32.754Z,124.00
2023-03-07T06:09:32.803Z,128.00
2023-03-07T06:10:32.772Z,136.00
2023-03-07T06:11:32.748Z,148.00
2023-03-07T06:12:32.741Z,152.00
2023-03-07T06:13:32.745Z,176.00
2023-03-07T06:14:32.714Z,168.00
2023-03-07T06:15:32.699Z,180.00
2023-03-07T06:16:32.679Z,188.00
2023-03-07T06:17:32.716Z,208.00
2023-03-07T06:18:32.697Z,232.00
2023-03-07T06:19:32.708Z,248.00
2023-03-07T06:20:32.647Z,240.00
2023-03-07T06:21:32.638Z,272.00
2023-03-07T06:22:32.627Z,288.00
2023-03-07T06:23:32.611Z,332.00
2023-03-07T06:24:32.633Z,360.00
2023-03-07T06:25:32.590Z,340.00
2023-03-07T06:26:32.585Z,352.00
2023-03-07T06:27:32.613Z,356.00
2023-03-07T06:28:33.100Z,364.00
2023-03-07T06:29:33.555Z,352.00
2023-03-07T06:30:32.549Z,364.00
2023-03-07T06:31:32.621Z,368.00
2023-03-07T06:32:32.661Z,388.00
2023-03-07T06:33:32.507Z,420.00
2023-03-07T06:34:32.512Z,420.00
2023-03-07T06:35:32.530Z,432.00
2023-03-07T06:36:32.492Z,392.00
2023-03-07T06:37:32.480Z,420.00
2023-03-07T06:38:32.488Z,448.00
2023-03-07T06:39:32.475Z,520.00
2023-03-07T06:40:32.485Z,592.00
2023-03-07T06:41:32.465Z,604.00
2023-03-07T06:42:32.433Z,636.00
2023-03-07T06:43:32.437Z,652.00
2023-03-07T06:44:32.416Z,772.00
2023-03-07T06:45:32.427Z,800.00
2023-03-07T06:46:32.390Z,740.00
2023-03-07T06:47:32.420Z,736.00
2023-03-07T06:48:32.374Z,708.00
2023-03-07T06:49:32.370Z,628.00
2023-03-07T06:50:35.487Z,596.00
2023-03-07T06:51:33.334Z,544.00
2023-03-07T06:52:32.331Z,496.00
2023-03-07T06:53:32.379Z,496.00
2023-03-07T06:54:32.322Z,560.00
2023-03-07T06:55:32.311Z,608.00
2023-03-07T06:56:32.298Z,728.00
2023-03-07T06:57:32.293Z,756.00
2023-03-07T06:58:32.303Z,708.00
2023-03-07T06:59:32.315Z,648.00
2023-03-07T07:00:32.272Z,884.00
2023-03-07T07:01:32.245Z,1096.00
2023-03-07T07:02:32.378Z,1084.00
2023-03-07T07:03:32.268Z,992.00
2023-03-07T07:04:32.247Z,1028.00
2023-03-07T07:05:32.217Z,1000.00
2023-03-07T07:06:32.220Z,984.00
2023-03-07T07:07:32.191Z,1044.00
2023-03-07T07:08:32.210Z,1024.00
2023-03-07T07:09:32.172Z,1240.00
2023-03-07T07:10:32.160Z,1392.00
2023-03-07T07:11:32.160Z,1484.00
2023-03-07T07:12:32.169Z,1716.00
2023-03-07T07:13:32.162Z,1732.00
2023-03-07T07:14:32.131Z,1560.00
2023-03-07T07:15:32.150Z,1448.00
2023-03-07T07:16:32.143Z,1448.00
2023-03-07T07:17:32.108Z,1692.00
2023-03-07T07:18:32.092Z,1680.00
2023-03-07T07:19:32.102Z,1876.00
2023-03-07T07:20:32.097Z,1844.00
2023-03-07T07:21:32.078Z,1940.00
2023-03-07T07:22:32.083Z,2080.00
2023-03-07T07:23:32.036Z,2088.00
2023-03-07T07:24:32.049Z,2052.00
2023-03-07T07:25:32.008Z,2144.00
2023-03-07T07:27:03.987Z,2228.00
2023-03-07T07:27:31.993Z,2120.00
2023-03-07T07:28:31.975Z,2040.00
2023-03-07T07:29:31.975Z,2136.00
2023-03-07T07:30:31.971Z,2244.00
2023-03-07T07:31:31.962Z,2720.00
2023-03-07T07:32:33.187Z,2688.00
2023-03-07T07:33:32.078Z,2608.00
2023-03-07T07:34:31.914Z,2424.00
2023-03-07T07:35:31.949Z,2012.00
2023-03-07T07:36:31.912Z,1936.00
2023-03-07T07:37:31.906Z,1984.00
2023-03-07T07:38:31.897Z,2276.00
2023-03-07T07:39:31.902Z,2444.00
2023-03-07T07:40:31.865Z,2344.00
2023-03-07T07:41:31.865Z,2380.00
2023-03-07T07:42:32.406Z,2316.00
2023-03-07T07:43:32.867Z,2192.00
2023-03-07T07:44:31.861Z,1916.00
2023-03-07T07:45:31.847Z,2096.00
2023-03-07T07:46:31.805Z,2060.00
2023-03-07T07:47:31.814Z,2364.00
2023-03-07T07:48:31.801Z,2224.00
2023-03-07T07:49:31.795Z,2156.00
2023-03-07T07:50:31.777Z,1984.00
2023-03-07T07:51:31.771Z,2564.00
2023-03-07T07:52:31.769Z,2580.00
2023-03-07T07:53:31.740Z,2444.00
2023-03-07T07:54:31.729Z,2272.00
2023-03-07T07:55:32.731Z,2288.00
2023-03-07T07:56:31.729Z,2236.00
2023-03-07T07:57:31.721Z,2096.00
2023-03-07T07:58:31.708Z,1860.00
2023-03-07T07:59:31.680Z,2024.00
2023-03-07T08:00:31.702Z,2452.00
2023-03-07T08:01:31.667Z,2740.00
2023-03-07T08:02:31.743Z,2520.00
2023-03-07T08:03:31.684Z,2248.00
2023-03-07T08:04:31.655Z,1880.00
2023-03-07T08:05:31.664Z,1812.00
2023-03-07T08:06:31.622Z,2188.00
2023-03-07T08:07:31.623Z,2536.00
2023-03-07T08:08:31.613Z,2808.00
2023-03-07T08:09:31.590Z,2512.00
2023-03-07T08:10:31.609Z,2240.00
2023-03-07T08:11:31.597Z,2624.00
2023-03-07T08:12:31.572Z,3108.00
2023-03-07T08:13:31.572Z,3448.00
2023-03-07T08:14:31.570Z,3136.00
2023-03-07T08:15:31.595Z,2928.00
2023-03-07T08:16:31.530Z,2440.00
2023-03-07T08:17:31.524Z,2276.00
2023-03-07T08:18:31.511Z,2816.00
2023-03-07T08:19:31.520Z,3260.00
2023-03-07T08:20:31.485Z,3056.00
2023-03-07T08:21:31.482Z,2484.00
2023-03-07T08:22:31.482Z,2292.00
2023-03-07T08:23:31.457Z,2408.00
2023-03-07T08:24:40.257Z,2396.00
2023-03-07T08:25:32.457Z,2112.00
2023-03-07T08:26:32.432Z,2024.00
2023-03-07T08:27:31.432Z,2008.00
2023-03-07T08:28:31.431Z,2364.00
2023-03-07T08:29:31.406Z,2604.00
2023-03-07T08:30:31.425Z,2320.00
2023-03-07T08:31:31.457Z,2176.00
2023-03-07T08:32:31.398Z,2252.00
2023-03-07T08:33:31.371Z,2412.00
2023-03-07T08:34:31.370Z,2548.00
2023-03-07T08:35:31.380Z,2212.00
2023-03-07T08:36:31.400Z,1912.00
2023-03-07T08:37:31.342Z,1908.00
2023-03-07T08:38:31.325Z,2076.00
2023-03-07T08:39:31.323Z,2540.00
2023-03-07T08:40:31.301Z,2996.00
2023-03-07T08:41:31.311Z,2864.00
2023-03-07T08:42:31.371Z,2596.00
2023-03-07T08:43:31.292Z,2164.00
2023-03-07T08:44:31.256Z,2028.00
2023-03-07T08:45:31.239Z,2140.00
2023-03-07T08:46:31.275Z,2416.00
2023-03-07T08:47:31.260Z,2436.00
2023-03-07T08:48:31.227Z,2124.00
2023-03-07T08:49:31.204Z,2016.00
2023-03-07T08:50:31.210Z,2352.00
2023-03-07T08:51:31.201Z,2412.00
2023-03-07T08:52:31.201Z,2864.00
2023-03-07T08:53:31.173Z,2728.00
2023-03-07T08:54:31.174Z,2528.00
2023-03-07T08:55:31.155Z,2300.00
2023-03-07T08:56:31.143Z,2328.00
2023-03-07T08:57:31.151Z,2336.00
2023-03-07T08:58:31.121Z,2764.00
2023-03-07T08:59:31.142Z,2720.00
2023-03-07T09:00:31.103Z,3008.00
2023-03-07T09:01:31.123Z,2984.00
2023-03-07T09:02:31.096Z,3284.00
2023-03-07T09:03:31.071Z,3464.00
2023-03-07T09:04:31.167Z,3764.00
2023-03-07T09:05:31.046Z,4088.00
2023-03-07T09:06:31.059Z,4168.00
2023-03-07T09:07:31.022Z,4196.00
2023-03-07T09:08:31.035Z,3400.00
2023-03-07T09:09:31.011Z,3492.00
2023-03-07T09:10:31.022Z,3392.00
2023-03-07T09:11:31.011Z,3336.00
2023-03-07T09:12:31.061Z,3804.00
2023-03-07T09:13:33.016Z,3788.00
2023-03-07T09:14:30.961Z,3868.00
2023-03-07T09:15:30.963Z,3836.00
2023-03-07T09:16:30.995Z,3840.00
2023-03-07T09:17:30.960Z,4120.00
2023-03-07T09:18:31.760Z,3716.00
2023-03-07T09:19:31.935Z,3468.00
2023-03-07T09:20:30.897Z,3512.00
2023-03-07T09:21:30.916Z,3856.00
2023-03-07T09:22:30.893Z,3916.00
2023-03-07T09:23:30.877Z,4208.00
2023-03-07T09:24:30.876Z,4540.00
2023-03-07T09:25:30.866Z,4636.00
2023-03-07T09:26:30.879Z,6440.00
2023-03-07T09:27:30.860Z,6092.00
2023-03-07T09:28:30.858Z,6188.00
2023-03-07T09:29:30.836Z,6068.00
2023-03-07T09:30:30.834Z,6208.00
2023-03-07T09:31:30.832Z,5400.00
2023-03-07T09:32:30.858Z,5780.00
2023-03-07T09:33:30.786Z,5964.00
2023-03-07T09:34:30.790Z,5744.00
2023-03-07T09:35:30.855Z,6244.00
2023-03-07T09:36:30.755Z,6740.00
2023-03-07T09:37:30.756Z,7216.00
2023-03-07T09:38:30.758Z,7304.00
2023-03-07T09:39:30.762Z,6636.00
2023-03-07T09:40:30.726Z,6532.00
2023-03-07T09:41:30.713Z,6648.00
2023-03-07T09:42:30.701Z,5396.00
2023-03-07T09:43:30.691Z,5008.00
2023-03-07T09:44:30.692Z,5200.00
2023-03-07T09:45:30.776Z,7004.00
2023-03-07T09:46:30.659Z,6652.00
2023-03-07T09:47:30.669Z,5692.00
2023-03-07T09:48:30.631Z,5692.00
2023-03-07T09:49:30.618Z,5912.00
2023-03-07T09:50:30.653Z,6256.00
2023-03-07T09:51:30.615Z,6844.00
2023-03-07T09:52:30.618Z,7044.00
2023-03-07T09:53:30.592Z,6148.00
2023-03-07T09:54:30.570Z,6108.00
2023-03-07T09:55:30.553Z,6672.00
2023-03-07T09:56:30.577Z,6480.00
2023-03-07T09:57:30.553Z,6380.00
2023-03-07T09:58:30.546Z,6880.00
2023-03-07T09:59:30.571Z,6816.00
2023-03-07T10:00:30.541Z,6732.00
2023-03-07T10:01:30.516Z,6128.00
2023-03-07T10:02:30.498Z,4932.00
2023-03-07T10:03:30.572Z,4908.00
2023-03-07T10:04:30.548Z,4464.00
2023-03-07T10:05:30.475Z,4336.00
2023-03-07T10:06:30.472Z,4456.00
2023-03-07T10:07:30.487Z,4560.00
2023-03-07T10:08:30.449Z,4452.00
2023-03-07T10:09:30.436Z,4852.00
2023-03-07T10:10:30.423Z,5232.00
2023-03-07T10:11:30.447Z,5904.00
2023-03-07T10:12:30.422Z,6176.00
2023-03-07T10:13:30.397Z,5980.00
2023-03-07T10:14:30.439Z,5848.00
2023-03-07T10:15:30.436Z,5452.00
2023-03-07T10:16:30.389Z,5304.00
2023-03-07T10:17:30.358Z,4900.00
2023-03-07T10:18:30.365Z,4308.00
2023-03-07T10:19:30.345Z,4292.00
2023-03-07T10:20:30.323Z,4100.00
2023-03-07T10:21:30.316Z,3968.00
2023-03-07T10:22:30.321Z,3952.00
2023-03-07T10:23:30.345Z,4216.00
2023-03-07T10:24:30.358Z,4716.00
2023-03-07T10:25:30.306Z,4480.00
2023-03-07T10:26:30.285Z,4268.00
2023-03-07T10:27:30.267Z,4304.00
2023-03-07T10:28:30.248Z,4120.00
2023-03-07T10:29:30.247Z,3784.00
2023-03-07T10:30:30.270Z,3668.00
2023-03-07T10:31:31.100Z,3952.00
2023-03-07T10:32:30.243Z,3780.00
2023-03-07T10:33:30.207Z,3756.00
2023-03-07T10:34:32.405Z,4172.00
2023-03-07T10:35:31.232Z,4284.00
2023-03-07T10:36:30.171Z,3900.00
2023-03-07T10:37:30.158Z,3980.00
2023-03-07T10:38:30.156Z,3776.00
2023-03-07T10:39:30.141Z,3636.00
2023-03-07T10:40:30.176Z,3740.00
2023-03-07T10:41:30.105Z,3436.00
2023-03-07T10:42:30.105Z,3624.00
2023-03-07T10:43:30.105Z,3940.00
2023-03-07T10:44:30.085Z,3784.00
2023-03-07T10:45:30.094Z,3672.00
2023-03-07T10:46:30.139Z,3348.00
2023-03-07T10:47:30.068Z,3064.00
2023-03-07T10:48:30.059Z,3332.00
2023-03-07T10:49:30.052Z,3276.00
2023-03-07T10:50:30.021Z,3220.00
2023-03-07T10:51:30.013Z,2788.00
2023-03-07T10:52:30.034Z,2676.00
2023-03-07T10:53:29.998Z,2916.00
2023-03-07T10:54:30.291Z,2948.00
2023-03-07T10:55:30.983Z,2948.00
2023-03-07T10:56:29.975Z,3664.00
2023-03-07T10:57:29.981Z,4152.00
2023-03-07T10:58:29.940Z,4348.00
2023-03-07T10:59:29.944Z,5548.00
2023-03-07T11:00:29.926Z,5392.00
2023-03-07T11:01:29.951Z,5124.00
2023-03-07T11:02:29.920Z,4852.00
2023-03-07T11:03:31.208Z,4752.00
2023-03-07T11:04:29.909Z,5040.00
2023-03-07T11:05:29.873Z,5352.00
2023-03-07T11:06:29.881Z,5964.00
2023-03-07T11:07:29.890Z,6076.00
2023-03-07T11:08:29.861Z,5924.00
2023-03-07T11:09:29.852Z,5600.00
2023-03-07T11:10:29.843Z,4936.00
2023-03-07T11:11:29.814Z,4756.00
2023-03-07T11:12:29.851Z,5260.00
2023-03-07T11:13:29.826Z,5408.00
2023-03-07T11:14:29.798Z,5784.00
2023-03-07T11:15:29.791Z,5716.00
2023-03-07T11:16:29.830Z,5696.00
2023-03-07T11:17:29.762Z,5216.00
2023-03-07T11:18:29.791Z,5004.00
2023-03-07T11:19:29.734Z,5356.00
2023-03-07T11:20:30.656Z,5584.00
2023-03-07T11:21:30.723Z,5500.00
2023-03-07T11:22:29.711Z,6796.00
2023-03-07T11:23:30.747Z,7652.00
2023-03-07T11:24:29.738Z,7548.00
2023-03-07T11:25:29.705Z,7856.00
2023-03-07T11:26:29.969Z,7224.00
2023-03-07T11:27:30.654Z,7432.00
2023-03-07T11:28:29.675Z,6992.00
2023-03-07T11:29:29.646Z,6056.00
2023-03-07T11:30:29.645Z,5932.00
2023-03-07T11:31:29.636Z,5660.00
2023-03-07T11:32:29.647Z,5384.00
2023-03-07T11:33:29.641Z,6408.00
2023-03-07T11:34:29.634Z,6816.00
2023-03-07T11:35:29.639Z,6440.00
2023-03-07T11:36:29.576Z,6348.00
2023-03-07T11:37:29.568Z,5516.00
2023-03-07T11:38:29.559Z,5680.00
2023-03-07T11:39:29.579Z,5916.00
2023-03-07T11:40:29.556Z,6008.00
2023-03-07T11:41:29.545Z,5820.00
2023-03-07T11:42:29.511Z,5892.00
2023-03-07T11:43:29.506Z,5808.00
2023-03-07T11:44:29.573Z,6028.00
2023-03-07T11:45:29.515Z,6108.00
2023-03-07T11:46:29.525Z,5992.00
2023-03-07T11:47:29.479Z,5636.00
2023-03-07T11:48:29.464Z,5972.00
2023-03-07T11:49:29.473Z,6512.00
2023-03-07T11:50:29.442Z,6576.00
2023-03-07T11:51:29.426Z,6688.00
2023-03-07T11:52:29.431Z,6376.00
2023-03-07T11:53:29.427Z,5372.00
2023-03-07T11:54:29.390Z,5252.00
2023-03-07T11:55:29.387Z,4956.00
2023-03-07T11:56:29.388Z,5076.00
2023-03-07T11:57:29.410Z,4872.00
2023-03-07T11:58:29.392Z,5184.00
2023-03-07T11:59:29.351Z,5840.00
2023-03-07T12:00:29.352Z,6156.00
2023-03-07T12:01:29.351Z,6916.00
2023-03-07T12:02:30.359Z,7420.00
2023-03-07T12:03:29.312Z,6800.00
2023-03-07T12:04:29.307Z,6652.00
2023-03-07T12:05:29.448Z,6980.00
2023-03-07T12:06:29.303Z,8164.00
2023-03-07T12:07:30.963Z,7820.00
2023-03-07T12:08:29.277Z,7292.00
2023-03-07T12:09:29.249Z,7100.00
2023-03-07T12:10:29.234Z,6884.00
2023-03-07T12:11:29.266Z,7876.00
2023-03-07T12:12:29.231Z,8052.00
2023-03-07T12:13:31.202Z,8336.00
2023-03-07T12:14:29.209Z,8624.00
2023-03-07T12:15:29.212Z,8584.00
2023-03-07T12:16:29.274Z,8048.00
2023-03-07T12:17:29.184Z,7136.00
2023-03-07T12:18:29.236Z,7444.00
2023-03-07T12:19:30.634Z,8008.00
2023-03-07T12:20:29.167Z,7764.00
2023-03-07T12:21:29.159Z,6704.00
2023-03-07T12:22:29.145Z,6384.00
2023-03-07T12:23:29.136Z,6348.00
2023-03-07T12:24:29.114Z,5832.00
2023-03-07T12:25:29.108Z,5296.00
2023-03-07T12:26:29.102Z,5100.00
2023-03-07T12:27:29.114Z,4628.00
2023-03-07T12:28:29.085Z,3832.00
2023-03-07T12:29:29.072Z,3764.00
2023-03-07T12:30:29.067Z,3736.00
2023-03-07T12:31:29.147Z,3552.00
2023-03-07T12:32:29.297Z,3868.00
2023-03-07T12:33:29.180Z,3888.00
2023-03-07T12:34:29.024Z,3924.00
2023-03-07T12:35:29.034Z,3824.00
2023-03-07T12:36:29.056Z,3748.00
2023-03-07T12:37:28.994Z,3832.00
2023-03-07T12:38:28.978Z,3788.00
2023-03-07T12:39:28.971Z,3660.00
2023-03-07T12:40:28.950Z,3480.00